sensor_id;sensor_type;location;lat;lon;timestamp;P1;durP1;ratioP1;P2;durP2;ratioP2
20138;SDS011;10230;51.502;10.800;2022-11-20T00:01:20;10.80;;;6.47;;
20138;SDS011;10230;51.502;10.800;2022-11-20T00:03:44;14.13;;;8.13;;
20138;SDS011;10230;51.502;10.800;2022-11-20T00:06:11;17.00;;;8.00;;
20138;SDS011;10230;51.502;10.800;2022-11-20T00:08:38;11.33;;;5.53;;
20138;SDS011;10230;51.502;10.800;2022-11-20T00:13:30;4.90;;;3.93;;
20138;SDS011;10230;51.502;10.800;2022-11-20T00:15:57;8.00;;;3.73;;
20138;SDS011;10230;51.502;10.800;2022-11-20T00:18:23;8.70;;;5.30;;
20138;SDS011;10230;51.502;10.800;2022-11-20T00:20:49;8.10;;;3.60;;
20138;SDS011;10230;51.502;10.800;2022-11-20T00:23:15;7.30;;;4.47;;
20138;SDS011;10230;51.502;10.800;2022-11-20T00:25:41;7.50;;;5.20;;
20138;SDS011;10230;51.502;10.800;2022-11-20T00:28:07;7.03;;;4.07;;
20138;SDS011;10230;51.502;10.800;2022-11-20T00:30:33;6.83;;;3.67;;
20138;SDS011;10230;51.502;10.800;2022-11-20T00:32:59;9.67;;;3.87;;
20138;SDS011;10230;51.502;10.800;2022-11-20T00:35:25;5.73;;;3.87;;
20138;SDS011;10230;51.502;10.800;2022-11-20T00:37:51;9.23;;;3.73;;
20138;SDS011;10230;51.502;10.800;2022-11-20T00:40:17;10.33;;;3.83;;
20138;SDS011;10230;51.502;10.800;2022-11-20T00:42:43;5.30;;;3.43;;
20138;SDS011;10230;51.502;10.800;2022-11-20T00:45:09;7.80;;;3.40;;
20138;SDS011;10230;51.502;10.800;2022-11-20T00:47:35;8.53;;;3.90;;
20138;SDS011;10230;51.502;10.800;2022-11-20T00:50:01;6.07;;;3.90;;
20138;SDS011;10230;51.502;10.800;2022-11-20T00:52:27;7.03;;;4.17;;
20138;SDS011;10230;51.502;10.800;2022-11-20T00:54:53;6.47;;;4.20;;
20138;SDS011;10230;51.502;10.800;2022-11-20T00:57:19;6.77;;;4.47;;
20138;SDS011;10230;51.502;10.800;2022-11-20T00:59:45;6.13;;;4.27;;
20138;SDS011;10230;51.502;10.800;2022-11-20T01:02:11;5.97;;;4.57;;
20138;SDS011;10230;51.502;10.800;2022-11-20T01:04:37;6.23;;;3.50;;
20138;SDS011;10230;51.502;10.800;2022-11-20T01:07:03;7.90;;;3.67;;
20138;SDS011;10230;51.502;10.800;2022-11-20T01:09:29;4.83;;;3.53;;
20138;SDS011;10230;51.502;10.800;2022-11-20T01:11:55;7.37;;;4.40;;
20138;SDS011;10230;51.502;10.800;2022-11-20T01:14:21;6.90;;;3.63;;
20138;SDS011;10230;51.502;10.800;2022-11-20T01:16:48;7.63;;;4.20;;
20138;SDS011;10230;51.502;10.800;2022-11-20T01:19:16;6.90;;;4.13;;
20138;SDS011;10230;51.502;10.800;2022-11-20T01:21:43;7.87;;;4.87;;
20138;SDS011;10230;51.502;10.800;2022-11-20T01:24:11;6.53;;;3.80;;
20138;SDS011;10230;51.502;10.800;2022-11-20T01:26:38;6.20;;;3.73;;
20138;SDS011;10230;51.502;10.800;2022-11-20T01:29:05;7.63;;;4.47;;
20138;SDS011;10230;51.502;10.800;2022-11-20T01:31:32;6.73;;;4.03;;
20138;SDS011;10230;51.502;10.800;2022-11-20T01:34:00;5.50;;;3.70;;
20138;SDS011;10230;51.502;10.800;2022-11-20T01:36:28;6.23;;;3.60;;
20138;SDS011;10230;51.502;10.800;2022-11-20T01:38:54;6.73;;;4.83;;
20138;SDS011;10230;51.502;10.800;2022-11-20T01:41:21;6.03;;;3.80;;
20138;SDS011;10230;51.502;10.800;2022-11-20T01:44:08;8.23;;;4.20;;
20138;SDS011;10230;51.502;10.800;2022-11-20T01:46:35;6.40;;;4.03;;
20138;SDS011;10230;51.502;10.800;2022-11-20T01:54:17;6.87;;;4.03;;
20138;SDS011;10230;51.502;10.800;2022-11-20T01:56:45;7.63;;;4.60;;
20138;SDS011;10230;51.502;10.800;2022-11-20T01:59:14;8.07;;;4.60;;
20138;SDS011;10230;51.502;10.800;2022-11-20T02:01:41;10.37;;;4.27;;
20138;SDS011;10230;51.502;10.800;2022-11-20T02:04:07;6.20;;;4.67;;
20138;SDS011;10230;51.502;10.800;2022-11-20T02:06:43;7.47;;;4.27;;
20138;SDS011;10230;51.502;10.800;2022-11-20T02:09:09;8.60;;;4.73;;
20138;SDS011;10230;51.502;10.800;2022-11-20T02:11:36;9.03;;;4.63;;
20138;SDS011;10230;51.502;10.800;2022-11-20T02:14:02;9.53;;;5.10;;
20138;SDS011;10230;51.502;10.800;2022-11-20T02:16:30;5.23;;;3.73;;
20138;SDS011;10230;51.502;10.800;2022-11-20T02:18:57;7.43;;;4.63;;
20138;SDS011;10230;51.502;10.800;2022-11-20T02:26:25;7.10;;;3.73;;
20138;SDS011;10230;51.502;10.800;2022-11-20T02:28:52;10.83;;;4.13;;
20138;SDS011;10230;51.502;10.800;2022-11-20T02:31:18;8.27;;;4.63;;
20138;SDS011;10230;51.502;10.800;2022-11-20T02:33:44;4.67;;;3.13;;
20138;SDS011;10230;51.502;10.800;2022-11-20T02:36:11;6.17;;;3.43;;
20138;SDS011;10230;51.502;10.800;2022-11-20T02:38:38;7.27;;;4.23;;
20138;SDS011;10230;51.502;10.800;2022-11-20T02:41:04;6.40;;;4.17;;
20138;SDS011;10230;51.502;10.800;2022-11-20T02:43:30;6.43;;;4.27;;
20138;SDS011;10230;51.502;10.800;2022-11-20T02:45:56;8.00;;;4.23;;
20138;SDS011;10230;51.502;10.800;2022-11-20T02:48:22;7.83;;;4.87;;
20138;SDS011;10230;51.502;10.800;2022-11-20T02:50:48;9.23;;;5.20;;
20138;SDS011;10230;51.502;10.800;2022-11-20T02:53:14;8.43;;;5.27;;
20138;SDS011;10230;51.502;10.800;2022-11-20T02:55:40;8.83;;;4.30;;
20138;SDS011;10230;51.502;10.800;2022-11-20T02:58:06;7.37;;;4.43;;
20138;SDS011;10230;51.502;10.800;2022-11-20T03:00:32;7.87;;;5.13;;
20138;SDS011;10230;51.502;10.800;2022-11-20T03:02:58;7.47;;;4.97;;
20138;SDS011;10230;51.502;10.800;2022-11-20T03:05:24;9.00;;;4.40;;
20138;SDS011;10230;51.502;10.800;2022-11-20T03:07:50;9.60;;;5.60;;
20138;SDS011;10230;51.502;10.800;2022-11-20T03:10:16;8.63;;;5.13;;
20138;SDS011;10230;51.502;10.800;2022-11-20T03:12:42;8.10;;;5.53;;
20138;SDS011;10230;51.502;10.800;2022-11-20T03:15:09;7.43;;;4.53;;
20138;SDS011;10230;51.502;10.800;2022-11-20T03:17:36;6.90;;;4.30;;
20138;SDS011;10230;51.502;10.800;2022-11-20T03:20:02;6.93;;;4.60;;
20138;SDS011;10230;51.502;10.800;2022-11-20T03:22:29;7.87;;;4.63;;
20138;SDS011;10230;51.502;10.800;2022-11-20T03:24:55;6.87;;;4.67;;
20138;SDS011;10230;51.502;10.800;2022-11-20T03:27:21;9.03;;;5.30;;
20138;SDS011;10230;51.502;10.800;2022-11-20T03:29:47;7.10;;;3.97;;
20138;SDS011;10230;51.502;10.800;2022-11-20T03:32:13;9.60;;;5.00;;
20138;SDS011;10230;51.502;10.800;2022-11-20T03:34:39;9.03;;;4.53;;
20138;SDS011;10230;51.502;10.800;2022-11-20T03:37:05;8.57;;;4.60;;
20138;SDS011;10230;51.502;10.800;2022-11-20T03:39:31;5.93;;;3.70;;
20138;SDS011;10230;51.502;10.800;2022-11-20T03:41:57;8.73;;;5.27;;
20138;SDS011;10230;51.502;10.800;2022-11-20T03:44:23;7.77;;;3.80;;
20138;SDS011;10230;51.502;10.800;2022-11-20T03:46:49;7.57;;;4.37;;
20138;SDS011;10230;51.502;10.800;2022-11-20T03:49:15;7.30;;;4.03;;
20138;SDS011;10230;51.502;10.800;2022-11-20T03:51:41;5.87;;;3.60;;
20138;SDS011;10230;51.502;10.800;2022-11-20T03:54:08;6.47;;;3.87;;
20138;SDS011;10230;51.502;10.800;2022-11-20T03:56:35;5.57;;;3.50;;
20138;SDS011;10230;51.502;10.800;2022-11-20T03:59:01;5.47;;;3.47;;
20138;SDS011;10230;51.502;10.800;2022-11-20T04:01:29;5.63;;;3.57;;
20138;SDS011;10230;51.502;10.800;2022-11-20T04:03:56;7.30;;;3.47;;
20138;SDS011;10230;51.502;10.800;2022-11-20T04:06:23;5.60;;;4.47;;
20138;SDS011;10230;51.502;10.800;2022-11-20T04:08:49;5.40;;;3.97;;
20138;SDS011;10230;51.502;10.800;2022-11-20T04:11:20;4.97;;;3.00;;
20138;SDS011;10230;51.502;10.800;2022-11-20T04:13:47;3.67;;;2.80;;
20138;SDS011;10230;51.502;10.800;2022-11-20T04:16:14;4.50;;;3.37;;
20138;SDS011;10230;51.502;10.800;2022-11-20T04:18:40;6.17;;;3.13;;
20138;SDS011;10230;51.502;10.800;2022-11-20T04:21:06;5.40;;;3.10;;
20138;SDS011;10230;51.502;10.800;2022-11-20T04:23:32;4.50;;;2.97;;
20138;SDS011;10230;51.502;10.800;2022-11-20T04:26:05;3.63;;;2.50;;
20138;SDS011;10230;51.502;10.800;2022-11-20T04:28:32;4.50;;;2.80;;
20138;SDS011;10230;51.502;10.800;2022-11-20T04:31:01;4.53;;;2.90;;
20138;SDS011;10230;51.502;10.800;2022-11-20T04:33:27;4.93;;;2.70;;
20138;SDS011;10230;51.502;10.800;2022-11-20T04:35:53;3.80;;;2.87;;
20138;SDS011;10230;51.502;10.800;2022-11-20T04:38:19;4.60;;;3.03;;
20138;SDS011;10230;51.502;10.800;2022-11-20T04:40:45;3.80;;;2.63;;
20138;SDS011;10230;51.502;10.800;2022-11-20T04:43:11;5.10;;;2.80;;
20138;SDS011;10230;51.502;10.800;2022-11-20T04:45:37;5.30;;;3.03;;
20138;SDS011;10230;51.502;10.800;2022-11-20T04:48:03;5.43;;;3.33;;
20138;SDS011;10230;51.502;10.800;2022-11-20T04:50:30;7.57;;;3.87;;
20138;SDS011;10230;51.502;10.800;2022-11-20T04:52:56;6.27;;;4.13;;
20138;SDS011;10230;51.502;10.800;2022-11-20T04:55:22;5.97;;;3.70;;
20138;SDS011;10230;51.502;10.800;2022-11-20T04:57:49;5.97;;;3.67;;
20138;SDS011;10230;51.502;10.800;2022-11-20T05:00:16;5.47;;;3.43;;
20138;SDS011;10230;51.502;10.800;2022-11-20T05:02:42;7.33;;;4.00;;
20138;SDS011;10230;51.502;10.800;2022-11-20T05:05:08;4.90;;;3.67;;
20138;SDS011;10230;51.502;10.800;2022-11-20T05:07:34;5.53;;;3.57;;
20138;SDS011;10230;51.502;10.800;2022-11-20T05:10:00;5.47;;;3.47;;
20138;SDS011;10230;51.502;10.800;2022-11-20T05:12:26;13.07;;;5.23;;
20138;SDS011;10230;51.502;10.800;2022-11-20T05:14:53;6.90;;;4.37;;
20138;SDS011;10230;51.502;10.800;2022-11-20T05:17:19;9.07;;;4.10;;
20138;SDS011;10230;51.502;10.800;2022-11-20T05:19:45;6.37;;;3.80;;
20138;SDS011;10230;51.502;10.800;2022-11-20T05:22:11;5.53;;;3.70;;
20138;SDS011;10230;51.502;10.800;2022-11-20T05:24:37;5.50;;;3.83;;
20138;SDS011;10230;51.502;10.800;2022-11-20T05:27:03;4.70;;;3.10;;
20138;SDS011;10230;51.502;10.800;2022-11-20T05:29:29;5.63;;;3.30;;
20138;SDS011;10230;51.502;10.800;2022-11-20T05:31:55;6.70;;;3.30;;
20138;SDS011;10230;51.502;10.800;2022-11-20T05:34:21;6.47;;;3.40;;
20138;SDS011;10230;51.502;10.800;2022-11-20T05:36:47;4.60;;;3.13;;
20138;SDS011;10230;51.502;10.800;2022-11-20T05:39:13;5.23;;;2.53;;
20138;SDS011;10230;51.502;10.800;2022-11-20T05:41:39;3.10;;;2.37;;
20138;SDS011;10230;51.502;10.800;2022-11-20T05:44:05;3.10;;;2.13;;
20138;SDS011;10230;51.502;10.800;2022-11-20T05:46:31;3.90;;;2.53;;
20138;SDS011;10230;51.502;10.800;2022-11-20T05:48:57;4.87;;;2.63;;
20138;SDS011;10230;51.502;10.800;2022-11-20T05:51:24;4.30;;;2.80;;
20138;SDS011;10230;51.502;10.800;2022-11-20T05:53:50;3.73;;;2.33;;
20138;SDS011;10230;51.502;10.800;2022-11-20T05:56:17;4.23;;;2.67;;
20138;SDS011;10230;51.502;10.800;2022-11-20T05:58:43;4.07;;;2.87;;
20138;SDS011;10230;51.502;10.800;2022-11-20T06:03:36;3.40;;;2.47;;
20138;SDS011;10230;51.502;10.800;2022-11-20T06:06:02;3.80;;;2.20;;
20138;SDS011;10230;51.502;10.800;2022-11-20T06:08:29;3.70;;;2.40;;
20138;SDS011;10230;51.502;10.800;2022-11-20T06:10:55;4.27;;;2.27;;
20138;SDS011;10230;51.502;10.800;2022-11-20T06:13:21;4.70;;;2.60;;
20138;SDS011;10230;51.502;10.800;2022-11-20T06:15:48;5.60;;;2.80;;
20138;SDS011;10230;51.502;10.800;2022-11-20T06:18:14;3.50;;;2.13;;
20138;SDS011;10230;51.502;10.800;2022-11-20T06:20:40;5.70;;;2.57;;
20138;SDS011;10230;51.502;10.800;2022-11-20T06:23:06;5.20;;;2.70;;
20138;SDS011;10230;51.502;10.800;2022-11-20T06:25:32;4.17;;;2.27;;
20138;SDS011;10230;51.502;10.800;2022-11-20T06:27:58;4.33;;;2.20;;
20138;SDS011;10230;51.502;10.800;2022-11-20T06:30:24;4.07;;;2.63;;
20138;SDS011;10230;51.502;10.800;2022-11-20T06:32:50;5.73;;;2.80;;
20138;SDS011;10230;51.502;10.800;2022-11-20T06:35:16;3.17;;;2.40;;
20138;SDS011;10230;51.502;10.800;2022-11-20T06:37:42;3.77;;;2.43;;
20138;SDS011;10230;51.502;10.800;2022-11-20T06:40:08;3.77;;;2.27;;
20138;SDS011;10230;51.502;10.800;2022-11-20T06:42:35;4.00;;;2.13;;
20138;SDS011;10230;51.502;10.800;2022-11-20T06:45:01;3.37;;;2.30;;
20138;SDS011;10230;51.502;10.800;2022-11-20T06:47:27;4.10;;;3.03;;
20138;SDS011;10230;51.502;10.800;2022-11-20T06:49:53;3.53;;;2.30;;
20138;SDS011;10230;51.502;10.800;2022-11-20T06:52:19;5.00;;;2.70;;
20138;SDS011;10230;51.502;10.800;2022-11-20T06:54:45;5.63;;;2.67;;
20138;SDS011;10230;51.502;10.800;2022-11-20T06:57:11;6.10;;;3.97;;
20138;SDS011;10230;51.502;10.800;2022-11-20T06:59:37;4.50;;;3.03;;
20138;SDS011;10230;51.502;10.800;2022-11-20T07:02:03;10.53;;;3.47;;
20138;SDS011;10230;51.502;10.800;2022-11-20T07:04:29;5.23;;;2.90;;
20138;SDS011;10230;51.502;10.800;2022-11-20T07:06:55;3.47;;;2.23;;
20138;SDS011;10230;51.502;10.800;2022-11-20T07:09:21;3.17;;;1.87;;
20138;SDS011;10230;51.502;10.800;2022-11-20T07:11:47;6.03;;;2.67;;
20138;SDS011;10230;51.502;10.800;2022-11-20T07:14:13;2.60;;;1.97;;
20138;SDS011;10230;51.502;10.800;2022-11-20T07:16:39;3.93;;;2.07;;
20138;SDS011;10230;51.502;10.800;2022-11-20T07:19:05;4.57;;;2.77;;
20138;SDS011;10230;51.502;10.800;2022-11-20T07:21:31;4.73;;;2.07;;
20138;SDS011;10230;51.502;10.800;2022-11-20T07:23:57;4.33;;;2.63;;
20138;SDS011;10230;51.502;10.800;2022-11-20T07:26:23;2.97;;;2.17;;
20138;SDS011;10230;51.502;10.800;2022-11-20T07:28:48;5.33;;;2.43;;
20138;SDS011;10230;51.502;10.800;2022-11-20T07:31:14;4.63;;;2.83;;
20138;SDS011;10230;51.502;10.800;2022-11-20T07:33:40;5.13;;;3.47;;
20138;SDS011;10230;51.502;10.800;2022-11-20T07:36:06;4.63;;;2.97;;
20138;SDS011;10230;51.502;10.800;2022-11-20T07:38:32;4.67;;;3.00;;
20138;SDS011;10230;51.502;10.800;2022-11-20T07:40:58;4.83;;;3.03;;
20138;SDS011;10230;51.502;10.800;2022-11-20T07:43:26;4.10;;;2.77;;
20138;SDS011;10230;51.502;10.800;2022-11-20T07:45:56;4.67;;;3.17;;
20138;SDS011;10230;51.502;10.800;2022-11-20T07:48:22;4.43;;;2.93;;
20138;SDS011;10230;51.502;10.800;2022-11-20T07:50:48;3.93;;;2.87;;
20138;SDS011;10230;51.502;10.800;2022-11-20T07:53:14;3.75;;;2.83;;
20138;SDS011;10230;51.502;10.800;2022-11-20T07:55:45;11.40;;;7.10;;
20138;SDS011;10230;51.502;10.800;2022-11-20T07:58:11;5.53;;;4.07;;
20138;SDS011;10230;51.502;10.800;2022-11-20T08:00:38;5.80;;;3.90;;
20138;SDS011;10230;51.502;10.800;2022-11-20T08:03:05;5.18;;;3.65;;
20138;SDS011;10230;51.502;10.800;2022-11-20T08:05:31;4.82;;;3.55;;
20138;SDS011;10230;51.502;10.800;2022-11-20T08:07:57;5.72;;;3.47;;
20138;SDS011;10230;51.502;10.800;2022-11-20T08:10:23;3.97;;;3.30;;
20138;SDS011;10230;51.502;10.800;2022-11-20T08:12:50;4.05;;;3.53;;
20138;SDS011;10230;51.502;10.800;2022-11-20T08:15:34;3.97;;;3.10;;
20138;SDS011;10230;51.502;10.800;2022-11-20T08:18:05;3.75;;;3.28;;
20138;SDS011;10230;51.502;10.800;2022-11-20T08:20:31;4.25;;;3.15;;
20138;SDS011;10230;51.502;10.800;2022-11-20T08:23:01;3.15;;;2.80;;
20138;SDS011;10230;51.502;10.800;2022-11-20T08:25:28;7.97;;;6.00;;
20138;SDS011;10230;51.502;10.800;2022-11-20T08:27:56;3.00;;;2.47;;
20138;SDS011;10230;51.502;10.800;2022-11-20T08:30:23;2.83;;;2.35;;
20138;SDS011;10230;51.502;10.800;2022-11-20T08:32:49;11.57;;;9.25;;
20138;SDS011;10230;51.502;10.800;2022-11-20T08:35:15;3.80;;;3.45;;
20138;SDS011;10230;51.502;10.800;2022-11-20T08:37:41;3.13;;;2.67;;
20138;SDS011;10230;51.502;10.800;2022-11-20T08:40:10;5.60;;;4.32;;
20138;SDS011;10230;51.502;10.800;2022-11-20T08:42:36;3.40;;;3.08;;
20138;SDS011;10230;51.502;10.800;2022-11-20T08:45:02;2.40;;;2.00;;
20138;SDS011;10230;51.502;10.800;2022-11-20T08:47:28;4.28;;;2.67;;
20138;SDS011;10230;51.502;10.800;2022-11-20T08:49:53;2.92;;;2.50;;
20138;SDS011;10230;51.502;10.800;2022-11-20T08:52:19;4.63;;;3.53;;
20138;SDS011;10230;51.502;10.800;2022-11-20T08:54:44;5.97;;;4.97;;
20138;SDS011;10230;51.502;10.800;2022-11-20T08:57:11;2.70;;;2.50;;
20138;SDS011;10230;51.502;10.800;2022-11-20T08:59:37;4.18;;;3.20;;
20138;SDS011;10230;51.502;10.800;2022-11-20T09:02:02;3.25;;;2.95;;
20138;SDS011;10230;51.502;10.800;2022-11-20T09:04:28;3.42;;;3.13;;
20138;SDS011;10230;51.502;10.800;2022-11-20T09:06:54;3.83;;;3.38;;
20138;SDS011;10230;51.502;10.800;2022-11-20T09:09:20;4.43;;;3.95;;
20138;SDS011;10230;51.502;10.800;2022-11-20T09:11:45;6.13;;;5.50;;
20138;SDS011;10230;51.502;10.800;2022-11-20T09:14:11;5.90;;;4.95;;
20138;SDS011;10230;51.502;10.800;2022-11-20T09:16:37;4.57;;;4.13;;
20138;SDS011;10230;51.502;10.800;2022-11-20T09:19:02;4.50;;;4.10;;
20138;SDS011;10230;51.502;10.800;2022-11-20T09:21:28;4.28;;;3.88;;
20138;SDS011;10230;51.502;10.800;2022-11-20T09:23:53;4.30;;;3.90;;
20138;SDS011;10230;51.502;10.800;2022-11-20T09:26:19;4.20;;;3.80;;
20138;SDS011;10230;51.502;10.800;2022-11-20T09:28:45;5.55;;;5.05;;
20138;SDS011;10230;51.502;10.800;2022-11-20T09:31:19;5.72;;;5.13;;
20138;SDS011;10230;51.502;10.800;2022-11-20T09:33:48;6.45;;;5.85;;
20138;SDS011;10230;51.502;10.800;2022-11-20T09:36:14;7.35;;;6.10;;
20138;SDS011;10230;51.502;10.800;2022-11-20T09:38:40;6.10;;;5.50;;
20138;SDS011;10230;51.502;10.800;2022-11-20T09:41:06;6.15;;;5.55;;
20138;SDS011;10230;51.502;10.800;2022-11-20T09:44:24;6.00;;;5.40;;
20138;SDS011;10230;51.502;10.800;2022-11-20T09:52:59;7.38;;;5.50;;
20138;SDS011;10230;51.502;10.800;2022-11-20T09:55:35;5.45;;;4.95;;
20138;SDS011;10230;51.502;10.800;2022-11-20T09:58:02;6.78;;;5.03;;
20138;SDS011;10230;51.502;10.800;2022-11-20T10:00:31;6.07;;;5.45;;
20138;SDS011;10230;51.502;10.800;2022-11-20T10:02:59;5.68;;;5.07;;
20138;SDS011;10230;51.502;10.800;2022-11-20T10:05:44;5.90;;;5.30;;
20138;SDS011;10230;51.502;10.800;2022-11-20T10:11:00;5.97;;;5.40;;
20138;SDS011;10230;51.502;10.800;2022-11-20T10:21:59;6.47;;;5.88;;
20138;SDS011;10230;51.502;10.800;2022-11-20T10:29:29;5.25;;;4.80;;
20138;SDS011;10230;51.502;10.800;2022-11-20T10:32:02;5.63;;;5.13;;
20138;SDS011;10230;51.502;10.800;2022-11-20T10:36:59;5.80;;;5.30;;
20138;SDS011;10230;51.502;10.800;2022-11-20T10:42:31;5.90;;;5.40;;
20138;SDS011;10230;51.502;10.800;2022-11-20T10:47:50;5.88;;;5.38;;
20138;SDS011;10230;51.502;10.800;2022-11-20T10:50:19;7.10;;;6.40;;
20138;SDS011;10230;51.502;10.800;2022-11-20T11:00:23;6.75;;;6.15;;
20138;SDS011;10230;51.502;10.800;2022-11-20T11:02:50;6.40;;;5.80;;
20138;SDS011;10230;51.502;10.800;2022-11-20T11:05:20;6.72;;;6.13;;
20138;SDS011;10230;51.502;10.800;2022-11-20T11:07:54;6.80;;;6.10;;
20138;SDS011;10230;51.502;10.800;2022-11-20T11:10:22;7.15;;;6.45;;
20138;SDS011;10230;51.502;10.800;2022-11-20T11:12:56;6.57;;;5.88;;
20138;SDS011;10230;51.502;10.800;2022-11-20T11:15:30;6.55;;;5.95;;
20138;SDS011;10230;51.502;10.800;2022-11-20T11:18:03;6.25;;;5.65;;
20138;SDS011;10230;51.502;10.800;2022-11-20T11:20:29;6.20;;;5.28;;
20138;SDS011;10230;51.502;10.800;2022-11-20T11:22:56;5.78;;;5.18;;
20138;SDS011;10230;51.502;10.800;2022-11-20T11:27:49;6.30;;;5.70;;
20138;SDS011;10230;51.502;10.800;2022-11-20T11:30:16;6.88;;;6.20;;
20138;SDS011;10230;51.502;10.800;2022-11-20T11:32:43;6.15;;;5.55;;
20138;SDS011;10230;51.502;10.800;2022-11-20T11:35:20;5.85;;;5.35;;
20138;SDS011;10230;51.502;10.800;2022-11-20T11:37:47;6.32;;;5.82;;
20138;SDS011;10230;51.502;10.800;2022-11-20T11:40:13;6.53;;;5.93;;
20138;SDS011;10230;51.502;10.800;2022-11-20T11:42:44;6.32;;;5.72;;
20138;SDS011;10230;51.502;10.800;2022-11-20T11:45:16;5.63;;;5.03;;
20138;SDS011;10230;51.502;10.800;2022-11-20T11:55:33;5.93;;;5.20;;
20138;SDS011;10230;51.502;10.800;2022-11-20T12:00:58;6.32;;;5.40;;
20138;SDS011;10230;51.502;10.800;2022-11-20T12:03:27;5.82;;;5.22;;
20138;SDS011;10230;51.502;10.800;2022-11-20T12:05:56;7.28;;;5.80;;
20138;SDS011;10230;51.502;10.800;2022-11-20T12:10:53;5.30;;;4.80;;
20138;SDS011;10230;51.502;10.800;2022-11-20T12:16:03;5.47;;;4.93;;
20138;SDS011;10230;51.502;10.800;2022-11-20T12:18:30;6.35;;;5.70;;
20138;SDS011;10230;51.502;10.800;2022-11-20T12:31:41;6.13;;;5.03;;
20138;SDS011;10230;51.502;10.800;2022-11-20T12:34:12;6.82;;;6.07;;
20138;SDS011;10230;51.502;10.800;2022-11-20T12:39:39;6.15;;;5.55;;
20138;SDS011;10230;51.502;10.800;2022-11-20T12:50:43;5.97;;;4.78;;
20138;SDS011;10230;51.502;10.800;2022-11-20T12:58:39;6.30;;;4.95;;
20138;SDS011;10230;51.502;10.800;2022-11-20T13:01:17;8.85;;;7.43;;
20138;SDS011;10230;51.502;10.800;2022-11-20T13:06:58;5.68;;;4.75;;
20138;SDS011;10230;51.502;10.800;2022-11-20T13:09:26;6.55;;;4.93;;
20138;SDS011;10230;51.502;10.800;2022-11-20T13:14:43;5.78;;;4.63;;
20138;SDS011;10230;51.502;10.800;2022-11-20T13:17:32;6.28;;;4.53;;
20138;SDS011;10230;51.502;10.800;2022-11-20T13:20:05;6.63;;;4.72;;
20138;SDS011;10230;51.502;10.800;2022-11-20T13:22:44;5.82;;;4.35;;
20138;SDS011;10230;51.502;10.800;2022-11-20T13:28:31;7.20;;;5.17;;
20138;SDS011;10230;51.502;10.800;2022-11-20T13:30:54;7.33;;;4.80;;
20138;SDS011;10230;51.502;10.800;2022-11-20T13:36:03;7.20;;;5.17;;
20138;SDS011;10230;51.502;10.800;2022-11-20T13:38:40;7.13;;;5.00;;
20138;SDS011;10230;51.502;10.800;2022-11-20T13:41:07;6.33;;;4.47;;
20138;SDS011;10230;51.502;10.800;2022-11-20T13:43:53;8.97;;;5.40;;
20138;SDS011;10230;51.502;10.800;2022-11-20T13:46:21;6.63;;;4.17;;
20138;SDS011;10230;51.502;10.800;2022-11-20T13:48:49;7.83;;;5.20;;
20138;SDS011;10230;51.502;10.800;2022-11-20T13:51:31;7.83;;;4.63;;
20138;SDS011;10230;51.502;10.800;2022-11-20T14:02:19;6.10;;;4.20;;
20138;SDS011;10230;51.502;10.800;2022-11-20T14:04:51;6.70;;;4.00;;
20138;SDS011;10230;51.502;10.800;2022-11-20T14:07:21;7.37;;;4.07;;
20138;SDS011;10230;51.502;10.800;2022-11-20T14:09:56;6.73;;;4.07;;
20138;SDS011;10230;51.502;10.800;2022-11-20T14:12:32;7.03;;;4.37;;
20138;SDS011;10230;51.502;10.800;2022-11-20T14:14:58;6.47;;;4.50;;
20138;SDS011;10230;51.502;10.800;2022-11-20T14:17:32;7.33;;;4.37;;
20138;SDS011;10230;51.502;10.800;2022-11-20T14:20:06;6.67;;;4.00;;
20138;SDS011;10230;51.502;10.800;2022-11-20T14:22:38;7.00;;;4.47;;
20138;SDS011;10230;51.502;10.800;2022-11-20T14:27:39;7.20;;;4.37;;
20138;SDS011;10230;51.502;10.800;2022-11-20T14:33:03;5.93;;;3.90;;
20138;SDS011;10230;51.502;10.800;2022-11-20T14:35:34;8.10;;;3.77;;
20138;SDS011;10230;51.502;10.800;2022-11-20T14:38:03;6.17;;;3.73;;
20138;SDS011;10230;51.502;10.800;2022-11-20T14:40:30;7.73;;;3.63;;
20138;SDS011;10230;51.502;10.800;2022-11-20T14:43:01;6.73;;;3.27;;
20138;SDS011;10230;51.502;10.800;2022-11-20T14:45:40;5.77;;;3.50;;
20138;SDS011;10230;51.502;10.800;2022-11-20T14:48:08;6.30;;;4.17;;
20138;SDS011;10230;51.502;10.800;2022-11-20T14:50:35;5.80;;;3.67;;
20138;SDS011;10230;51.502;10.800;2022-11-20T14:53:02;7.30;;;3.47;;
20138;SDS011;10230;51.502;10.800;2022-11-20T14:55:32;5.53;;;2.87;;
20138;SDS011;10230;51.502;10.800;2022-11-20T14:58:01;6.47;;;4.03;;
20138;SDS011;10230;51.502;10.800;2022-11-20T15:00:32;8.00;;;4.87;;
20138;SDS011;10230;51.502;10.800;2022-11-20T15:02:59;7.57;;;3.40;;
20138;SDS011;10230;51.502;10.800;2022-11-20T15:05:26;8.17;;;4.20;;
20138;SDS011;10230;51.502;10.800;2022-11-20T15:08:12;5.70;;;3.90;;
20138;SDS011;10230;51.502;10.800;2022-11-20T15:10:39;6.33;;;3.87;;
20138;SDS011;10230;51.502;10.800;2022-11-20T15:13:11;7.10;;;3.77;;
20138;SDS011;10230;51.502;10.800;2022-11-20T15:18:11;9.00;;;4.87;;
20138;SDS011;10230;51.502;10.800;2022-11-20T15:20:38;11.40;;;5.20;;
20138;SDS011;10230;51.502;10.800;2022-11-20T15:23:14;9.07;;;4.03;;
20138;SDS011;10230;51.502;10.800;2022-11-20T15:25:41;8.03;;;3.87;;
20138;SDS011;10230;51.502;10.800;2022-11-20T15:28:40;6.90;;;3.80;;
20138;SDS011;10230;51.502;10.800;2022-11-20T15:30:59;8.67;;;3.93;;
20138;SDS011;10230;51.502;10.800;2022-11-20T15:33:27;8.00;;;4.10;;
20138;SDS011;10230;51.502;10.800;2022-11-20T15:35:53;8.23;;;3.87;;
20138;SDS011;10230;51.502;10.800;2022-11-20T15:38:19;8.73;;;4.83;;
20138;SDS011;10230;51.502;10.800;2022-11-20T15:40:45;7.70;;;4.63;;
20138;SDS011;10230;51.502;10.800;2022-11-20T15:43:11;10.73;;;4.87;;
20138;SDS011;10230;51.502;10.800;2022-11-20T15:45:37;9.17;;;4.97;;
20138;SDS011;10230;51.502;10.800;2022-11-20T15:48:04;10.80;;;4.63;;
20138;SDS011;10230;51.502;10.800;2022-11-20T15:50:36;9.47;;;5.30;;
20138;SDS011;10230;51.502;10.800;2022-11-20T15:53:02;5.80;;;4.23;;
20138;SDS011;10230;51.502;10.800;2022-11-20T15:55:28;9.10;;;4.63;;
20138;SDS011;10230;51.502;10.800;2022-11-20T15:57:55;9.60;;;5.17;;
20138;SDS011;10230;51.502;10.800;2022-11-20T16:00:21;9.90;;;4.97;;
20138;SDS011;10230;51.502;10.800;2022-11-20T16:02:47;10.00;;;5.10;;
20138;SDS011;10230;51.502;10.800;2022-11-20T16:05:13;10.57;;;5.50;;
20138;SDS011;10230;51.502;10.800;2022-11-20T16:07:42;15.37;;;8.33;;
20138;SDS011;10230;51.502;10.800;2022-11-20T16:10:08;16.00;;;9.37;;
20138;SDS011;10230;51.502;10.800;2022-11-20T16:12:34;17.77;;;8.53;;
20138;SDS011;10230;51.502;10.800;2022-11-20T16:15:19;17.03;;;8.03;;
20138;SDS011;10230;51.502;10.800;2022-11-20T16:18:03;12.23;;;7.30;;
20138;SDS011;10230;51.502;10.800;2022-11-20T16:20:29;11.70;;;6.53;;
20138;SDS011;10230;51.502;10.800;2022-11-20T16:22:55;9.97;;;6.17;;
20138;SDS011;10230;51.502;10.800;2022-11-20T16:25:21;19.53;;;8.47;;
20138;SDS011;10230;51.502;10.800;2022-11-20T16:27:47;18.60;;;8.47;;
20138;SDS011;10230;51.502;10.800;2022-11-20T16:30:13;20.13;;;8.10;;
20138;SDS011;10230;51.502;10.800;2022-11-20T16:32:39;15.77;;;8.07;;
20138;SDS011;10230;51.502;10.800;2022-11-20T16:35:05;20.73;;;8.60;;
20138;SDS011;10230;51.502;10.800;2022-11-20T16:37:32;22.77;;;8.27;;
20138;SDS011;10230;51.502;10.800;2022-11-20T16:39:58;19.37;;;7.77;;
20138;SDS011;10230;51.502;10.800;2022-11-20T16:42:24;20.57;;;9.40;;
20138;SDS011;10230;51.502;10.800;2022-11-20T16:44:50;19.67;;;7.93;;